Weather at Rio Branco-Plácido de Castro International Airport

Public forecast

Using degrees Celsius for public forecast. Weather courtesy of forecast.io.

Current aviation weather report (METAR) for Rio Branco-Plácido de Castro International Airport

Retrieved 2021/04/12 15:00 UTC (12 minutes ago):

SBRB 121500Z 17002KT 9999 FEW020 BKN090 26/23 Q1016

Aviation forecast (TAF) for Rio Branco-Plácido de Castro International Airport

Retrieved 2021/04/12 12:00 UTC (3 hours ago):

TAF SBRB 120900Z 1212/1224 12005KT 9999 SCT010 TX29/1217Z TN23/1223Z BECMG 1213/1215 21005KT BECMG 1216/1218 17005KT SCT020 PROB30 1219/1223 FEW025 FEW030TCU RMK PGY